Time;durP1;ratioP1;P1;durP2;ratioP2;P2;SDS_P1;SDS_P2;PMS_P1;PMS_P2;Temp;Humidity;BMP_temperature;BMP_pressure;BME280_temperature;BME280_humidity;BME280_pressure;Samples;Min_cycle;Max_cycle;Signal;HPM_P1;HPM_P2
2021/12/27 00:00:22;;;;;;;25.92;13.55;;;0.10;99.90;;;;;;5083741;28;20408;-73
2021/12/27 00:02:49;;;;;;;27.67;14.52;;;;;;;;;;5079150;28;20083;-73
2021/12/27 00:05:15;;;;;;;28.15;14.48;;;0.00;99.90;;;;;;5084323;28;20464;-74
2021/12/27 00:07:43;;;;;;;30.25;15.10;;;;;;;;;;5088111;28;20038;-73
2021/12/27 00:10:10;;;;;;;29.77;14.55;;;;;;;;;;5081566;28;20033;-73
2021/12/27 00:12:36;;;;;;;28.30;14.30;;;;;;;;;;5077339;28;20028;-73
2021/12/27 00:15:03;;;;;;;28.98;14.57;;;;;;;;;;5080215;28;20086;-73
2021/12/27 00:17:29;;;;;;;30.65;15.07;;;;;;;;;;5091641;28;20035;-73
2021/12/27 00:19:56;;;;;;;26.30;14.50;;;;;;;;;;5077841;28;20072;-73
2021/12/27 00:22:22;;;;;;;26.40;14.02;;;;;;;;;;5087958;28;20055;-73
2021/12/27 00:24:49;;;;;;;27.27;14.02;;;;;;;;;;5075938;28;20119;-73
2021/12/27 00:27:16;;;;;;;25.13;13.95;;;0.10;99.90;;;;;;5074898;28;20055;-73
2021/12/27 00:29:43;;;;;;;30.63;15.02;;;;;;;;;;5072972;28;20082;-73
2021/12/27 00:32:09;;;;;;;28.13;14.32;;;;;;;;;;5072599;28;20087;-74
2021/12/27 00:34:38;;;;;;;30.00;14.65;;;;;;;;;;5078284;28;20055;-73
2021/12/27 00:37:06;;;;;;;32.13;16.20;;;0.10;99.90;;;;;;5083750;28;20036;-73
2021/12/27 00:39:32;;;;;;;28.45;14.90;;;;;;;;;;5074651;28;20040;-74
2021/12/27 00:41:59;;;;;;;30.60;14.80;;;;;;;;;;5062690;28;20500;-73
2021/12/27 00:44:25;;;;;;;32.70;16.13;;;;;;;;;;5061358;28;20400;-74
2021/12/27 00:46:51;;;;;;;29.00;14.55;;;;;;;;;;5080072;28;20419;-73
2021/12/27 00:49:17;;;;;;;32.20;15.02;;;;;;;;;;5073594;28;20028;-74
2021/12/27 00:51:43;;;;;;;29.95;16.08;;;;;;;;;;5078146;28;20040;-74
2021/12/27 00:54:09;;;;;;;29.65;15.38;;;;;;;;;;5078293;28;20037;-73
2021/12/27 00:56:35;;;;;;;34.58;15.48;;;;;;;;;;5079469;28;20028;-73
2021/12/27 00:59:01;;;;;;;29.65;15.68;;;;;;;;;;5076857;28;20044;-73
2021/12/27 01:01:28;;;;;;;28.70;15.68;;;;;;;;;;5089734;28;20065;-74
2021/12/27 01:03:54;;;;;;;32.63;15.80;;;;;;;;;;5075589;28;20387;-74
2021/12/27 01:06:20;;;;;;;29.63;15.85;;;;;;;;;;5077626;28;20157;-74
2021/12/27 01:08:46;;;;;;;27.45;15.38;;;;;;;;;;5088786;28;20041;-73
2021/12/27 01:16:12;;;;;;;32.00;16.10;;;;;;;;;;5084167;28;20043;-74
2021/12/27 01:18:48;;;;;;;34.92;16.08;;;;;;;;;;5086598;28;20074;-74
2021/12/27 01:21:16;;;;;;;30.23;15.70;;;0.40;99.90;;;;;;5073842;28;20048;-74
2021/12/27 01:23:43;;;;;;;31.30;15.88;;;;;;;;;;5068594;28;20383;-73
2021/12/27 01:26:09;;;;;;;32.10;15.55;;;;;;;;;;5059869;28;20399;-74
2021/12/27 01:28:35;;;;;;;30.58;16.63;;;;;;;;;;5070102;28;20040;-73
2021/12/27 01:31:02;;;;;;;34.75;15.43;;;;;;;;;;5073921;28;20542;-74
2021/12/27 01:33:28;;;;;;;32.15;16.20;;;;;;;;;;5069993;28;20040;-73
2021/12/27 01:35:55;;;;;;;32.90;17.05;;;0.00;99.90;;;;;;5073388;28;20154;-73
2021/12/27 01:38:22;;;;;;;29.23;15.00;;;;;;;;;;5072991;28;20040;-73
2021/12/27 01:40:50;;;;;;;32.20;16.25;;;0.30;99.90;;;;;;5073453;28;20056;-73
2021/12/27 01:43:20;;;;;;;31.42;16.65;;;0.40;99.90;;;;;;5083741;28;20111;-73
2021/12/27 01:45:49;;;;;;;30.77;16.15;;;0.30;99.90;;;;;;5091660;28;20123;-74
2021/12/27 01:48:20;;;;;;;30.80;16.30;;;0.30;99.90;;;;;;5082464;28;20067;-73
2021/12/27 01:50:46;;;;;;;31.70;15.20;;;0.30;99.90;;;;;;5074361;28;20051;-73
2021/12/27 01:53:13;;;;;;;32.00;16.42;;;0.10;99.90;;;;;;5081053;28;20534;-74
2021/12/27 01:55:40;;;;;;;33.90;16.65;;;;;;;;;;5073043;28;20033;-73
2021/12/27 01:58:06;;;;;;;32.13;16.52;;;;;;;;;;5079700;28;20571;-73
2021/12/27 02:00:34;;;;;;;29.88;16.10;;;0.50;99.90;;;;;;5074977;28;20067;-74
2021/12/27 02:03:02;;;;;;;33.63;16.60;;;;;;;;;;5086293;28;20041;-73
2021/12/27 02:05:28;;;;;;;30.30;16.60;;;0.00;99.90;;;;;;5072591;28;20048;-73
2021/12/27 02:07:54;;;;;;;36.67;17.45;;;;;;;;;;5076198;28;20089;-73
2021/12/27 02:10:20;;;;;;;30.50;15.93;;;;;;;;;;5077909;28;20028;-74
2021/12/27 02:12:46;;;;;;;34.75;16.92;;;;;;;;;;5088948;28;20036;-74
2021/12/27 02:15:12;;;;;;;32.35;17.13;;;;;;;;;;5072659;28;21412;-73
2021/12/27 02:17:42;;;;;;;34.85;17.67;;;0.20;99.90;;;;;;5058911;28;20069;-73
2021/12/27 02:20:23;;;;;;;35.35;17.60;;;0.30;99.90;;;;;;5084982;28;20071;-73
2021/12/27 02:22:51;;;;;;;31.73;15.95;;;;;;;;;;5091026;28;20052;-73
2021/12/27 02:25:17;;;;;;;32.10;16.40;;;;;;;;;;5075441;28;20072;-73
2021/12/27 02:27:43;;;;;;;30.75;16.27;;;0.20;99.90;;;;;;5075222;28;20036;-73
2021/12/27 02:30:13;;;;;;;32.47;16.92;;;0.40;99.90;;;;;;5086404;28;20401;-73
2021/12/27 02:32:49;;;;;;;36.80;16.77;;;0.40;99.90;;;;;;5088312;28;20123;-73
2021/12/27 02:35:21;;;;;;;34.15;17.38;;;0.30;99.90;;;;;;5106974;28;20503;-73
2021/12/27 02:37:48;;;;;;;30.08;16.70;;;;;;;;;;5084552;28;20029;-73
2021/12/27 02:40:14;;;;;;;33.83;17.90;;;;;;;;;;5058069;28;20040;-73
2021/12/27 02:42:53;;;;;;;35.15;17.65;;;;;;;;;;5075393;28;20060;-73
2021/12/27 02:45:19;;;;;;;35.13;16.77;;;;;;;;;;5087578;28;20040;-73
2021/12/27 02:47:45;;;;;;;32.30;17.63;;;;;;;;;;5056854;28;20128;-73
2021/12/27 02:50:11;;;;;;;39.35;17.20;;;0.40;99.90;;;;;;5088197;28;20039;-73
2021/12/27 02:52:37;;;;;;;34.33;16.85;;;;;;;;;;5085632;28;20044;-73
2021/12/27 02:55:03;;;;;;;32.65;17.05;;;;;;;;;;5072180;28;20040;-73
2021/12/27 02:57:29;;;;;;;36.40;17.25;;;;;;;;;;5073224;28;20036;-73
2021/12/27 02:59:57;;;;;;;32.85;17.20;;;0.70;99.90;;;;;;5084499;28;20133;-73
2021/12/27 03:02:23;;;;;;;32.53;17.00;;;;;;;;;;5090510;28;20145;-74
2021/12/27 03:04:49;;;;;;;35.75;17.67;;;;;;;;;;5064355;28;20426;-74
2021/12/27 03:07:15;;;;;;;35.22;18.13;;;;;;;;;;5057596;28;20039;-73
2021/12/27 03:09:41;;;;;;;34.63;18.17;;;;;;;;;;5075974;28;20110;-73
2021/12/27 03:12:12;;;;;;;37.70;18.48;;;0.50;99.90;;;;;;5070344;28;20043;-73
2021/12/27 03:14:38;;;;;;;41.20;18.85;;;;;;;;;;5079514;28;20430;-73
2021/12/27 03:17:04;;;;;;;35.53;16.92;;;0.50;99.90;;;;;;5084007;28;20102;-73
2021/12/27 03:19:30;;;;;;;35.13;16.50;;;;;;;;;;5079963;28;20480;-73
2021/12/27 03:21:56;;;;;;;34.13;17.02;;;;;;;;;;5071832;28;20041;-72
2021/12/27 03:24:22;;;;;;;35.05;17.60;;;;;;;;;;5076744;28;20032;-72
2021/12/27 03:26:49;;;;;;;35.63;18.00;;;0.40;99.90;;;;;;5082237;28;20063;-72
2021/12/27 03:29:16;;;;;;;36.85;17.83;;;;;;;;;;5075284;28;20040;-72
2021/12/27 03:31:42;;;;;;;34.85;17.50;;;;;;;;;;5058180;28;20036;-69
2021/12/27 03:34:08;;;;;;;35.35;17.42;;;;;;;;;;5072920;28;20049;-69
2021/12/27 03:36:39;;;;;;;36.78;18.90;;;0.40;99.90;;;;;;5079873;28;20162;-69
2021/12/27 03:39:08;;;;;;;37.03;19.70;;;0.40;99.90;;;;;;5074469;28;20380;-69
2021/12/27 03:41:34;;;;;;;34.70;18.60;;;;;;;;;;5076306;28;20060;-70
2021/12/27 03:44:00;;;;;;;37.47;17.23;;;;;;;;;;5074352;28;20500;-69
2021/12/27 03:46:27;;;;;;;37.00;18.80;;;;;;;;;;5084742;28;20039;-70
2021/12/27 03:48:53;;;;;;;33.70;16.95;;;;;;;;;;5078326;28;20036;-69
2021/12/27 03:51:19;;;;;;;34.35;17.75;;;;;;;;;;5091463;28;20029;-69
2021/12/27 03:53:45;;;;;;;36.15;18.15;;;;;;;;;;5078414;28;20047;-69
2021/12/27 03:56:11;;;;;;;35.50;18.63;;;;;;;;;;5080572;28;20090;-69
2021/12/27 03:58:48;;;;;;;34.58;17.42;;;1.20;99.90;;;;;;5076418;28;20446;-69
2021/12/27 04:01:16;;;;;;;39.22;18.77;;;0.40;99.90;;;;;;5056976;28;20125;-69
2021/12/27 04:03:48;;;;;;;34.75;18.05;;;0.50;99.90;;;;;;5090394;28;20076;-69
2021/12/27 04:06:15;;;;;;;34.58;18.73;;;0.60;99.90;;;;;;5088882;28;20036;-69
2021/12/27 04:08:42;;;;;;;37.10;19.98;;;;;;;;;;5060868;28;20032;-69
2021/12/27 04:11:08;;;;;;;36.78;18.73;;;;;;;;;;5088404;28;20498;-69
2021/12/27 04:13:34;;;;;;;36.53;18.15;;;;;;;;;;5075537;28;20089;-69
2021/12/27 04:16:00;;;;;;;41.03;19.20;;;;;;;;;;5064438;28;20036;-69
2021/12/27 04:18:27;;;;;;;40.80;19.67;;;;;;;;;;5076652;28;20856;-69
2021/12/27 04:20:53;;;;;;;35.70;19.02;;;;;;;;;;5085546;28;20123;-69
2021/12/27 04:23:19;;;;;;;38.45;19.42;;;;;;;;;;5076726;28;20489;-69
2021/12/27 04:25:45;;;;;;;38.35;19.30;;;0.70;99.90;;;;;;5085375;28;20043;-69
2021/12/27 04:28:12;;;;;;;34.42;19.30;;;0.80;99.90;;;;;;5072842;28;20045;-69
2021/12/27 04:30:38;;;;;;;35.95;18.85;;;;;;;;;;5087434;28;20035;-69
2021/12/27 04:33:05;;;;;;;39.58;19.58;;;0.70;99.90;;;;;;5076510;28;20048;-69
2021/12/27 04:35:31;;;;;;;37.40;19.73;;;;;;;;;;5085914;28;20040;-69
2021/12/27 04:37:58;;;;;;;33.10;18.90;;;;;;;;;;5081344;28;20427;-70
2021/12/27 04:40:26;;;;;;;38.28;19.50;;;;;;;;;;5076959;28;20504;-69
2021/12/27 04:42:56;;;;;;;40.88;19.85;;;0.60;99.90;;;;;;5077700;28;20525;-69
2021/12/27 04:45:22;;;;;;;40.22;20.65;;;;;;;;;;5088177;28;20042;-69
2021/12/27 04:47:48;;;;;;;45.13;21.25;;;;;;;;;;5077243;28;20443;-69
2021/12/27 04:50:14;;;;;;;40.30;20.77;;;;;;;;;;5058601;28;20048;-69
2021/12/27 04:52:40;;;;;;;40.60;20.85;;;;;;;;;;5080347;28;20133;-69
2021/12/27 04:55:07;;;;;;;46.92;20.75;;;1.10;99.90;;;;;;5078121;28;20120;-68
2021/12/27 04:57:33;;;;;;;39.47;21.17;;;;;;;;;;5074336;28;20044;-68
2021/12/27 04:59:59;;;;;;;37.10;19.92;;;;;;;;;;5074431;28;20036;-69
2021/12/27 05:02:25;;;;;;;40.90;20.20;;;;;;;;;;5085474;28;20051;-68
2021/12/27 05:04:51;;;;;;;44.50;20.65;;;;;;;;;;5075263;28;20419;-68
2021/12/27 05:07:17;;;;;;;41.45;20.65;;;;;;;;;;5061033;28;20044;-68
2021/12/27 05:09:43;;;;;;;44.30;20.90;;;;;;;;;;5073346;28;20036;-68
2021/12/27 05:12:09;;;;;;;50.05;21.05;;;1.10;99.90;;;;;;5063148;28;20473;-68
2021/12/27 05:14:35;;;;;;;44.00;21.45;;;;;;;;;;5075088;28;20032;-68
2021/12/27 05:17:01;;;;;;;43.88;21.70;;;;;;;;;;5055110;28;20388;-68
2021/12/27 05:19:27;;;;;;;40.60;20.48;;;;;;;;;;5073738;28;20094;-68
2021/12/27 05:21:53;;;;;;;41.78;21.13;;;;;;;;;;5075112;28;20090;-69
2021/12/27 05:24:21;;;;;;;47.05;21.73;;;;;;;;;;5075871;28;20036;-68
2021/12/27 05:26:49;;;;;;;45.72;22.63;;;;;;;;;;5077942;28;20094;-68
2021/12/27 05:29:15;;;;;;;42.70;21.75;;;;;;;;;;5076518;28;20037;-69
2021/12/27 05:31:41;;;;;;;42.92;21.83;;;;;;;;;;5062751;28;20039;-69
2021/12/27 05:34:07;;;;;;;40.95;21.23;;;;;;;;;;5076314;28;20044;-68
2021/12/27 05:36:33;;;;;;;43.38;21.83;;;;;;;;;;5079491;28;20450;-69
2021/12/27 05:39:00;;;;;;;42.30;21.13;;;;;;;;;;5081703;28;20515;-70
2021/12/27 05:41:26;;;;;;;45.42;22.55;;;;;;;;;;5098180;28;20036;-69
2021/12/27 05:43:52;;;;;;;47.88;22.45;;;;;;;;;;5074020;28;20400;-69
2021/12/27 05:46:18;;;;;;;42.78;22.80;;;;;;;;;;5079689;28;20046;-68
2021/12/27 05:48:44;;;;;;;45.55;21.75;;;;;;;;;;5075869;28;20067;-69
2021/12/27 05:51:10;;;;;;;49.50;21.83;;;;;;;;;;5087511;28;20044;-69
2021/12/27 05:53:36;;;;;;;48.63;23.08;;;;;;;;;;5083277;28;20028;-69
2021/12/27 05:56:02;;;;;;;38.95;20.10;;;;;;;;;;5072954;28;20036;-69
2021/12/27 05:58:29;;;;;;;47.30;21.92;;;;;;;;;;5076266;28;20079;-69
2021/12/27 06:00:55;;;;;;;47.45;21.98;;;;;;;;;;5070932;28;20044;-69
2021/12/27 06:03:21;;;;;;;48.00;21.77;;;;;;;;;;5067866;28;20036;-69
2021/12/27 06:05:47;;;;;;;47.65;22.08;;;;;;;;;;5087691;28;20044;-69
2021/12/27 06:08:13;;;;;;;47.88;22.38;;;;;;;;;;5085130;28;20043;-69
2021/12/27 06:10:39;;;;;;;45.08;21.60;;;;;;;;;;5074385;28;20036;-69
2021/12/27 06:13:05;;;;;;;43.17;21.42;;;;;;;;;;5071766;28;20093;-69
2021/12/27 06:15:31;;;;;;;42.97;21.75;;;;;;;;;;5057109;28;20548;-69
2021/12/27 06:17:57;;;;;;;49.47;22.42;;;;;;;;;;5089368;28;20404;-69
2021/12/27 06:20:23;;;;;;;47.17;21.63;;;;;;;;;;5077561;28;20041;-69
2021/12/27 06:22:53;;;;;;;51.92;24.52;;;0.60;99.90;;;;;;5079606;28;20492;-69
2021/12/27 06:25:19;;;;;;;51.13;24.40;;;;;;;;;;5089965;28;20067;-70
2021/12/27 06:27:45;;;;;;;47.40;23.25;;;;;;;;;;5078061;28;20036;-69
2021/12/27 06:30:13;;;;;;;50.45;22.70;;;0.50;99.90;;;;;;5075551;28;20040;-69
2021/12/27 06:32:39;;;;;;;50.90;22.75;;;;;;;;;;5085499;28;20060;-68
2021/12/27 06:35:07;;;;;;;48.45;21.27;;;0.90;99.90;;;;;;5075991;28;20531;-68
2021/12/27 06:37:33;;;;;;;56.80;22.92;;;;;;;;;;5062222;28;20062;-68
2021/12/27 06:39:59;;;;;;;51.10;22.40;;;;;;;;;;5072415;28;20040;-69
2021/12/27 06:42:25;;;;;;;42.40;21.30;;;;;;;;;;5073400;28;20480;-68
2021/12/27 06:44:51;;;;;;;48.67;21.40;;;;;;;;;;5089076;28;20031;-68
2021/12/27 06:47:17;;;;;;;54.20;22.63;;;;;;;;;;5083596;28;20036;-68
2021/12/27 06:49:44;;;;;;;45.28;21.67;;;;;;;;;;5074913;28;20115;-68
2021/12/27 06:52:11;;;;;;;55.50;23.48;;;;;;;;;;5054895;28;20032;-68
2021/12/27 06:54:38;;;;;;;50.70;22.90;;;0.60;99.90;;;;;;5087462;28;20040;-68
2021/12/27 06:57:04;;;;;;;58.83;23.95;;;0.20;99.90;;;;;;5080590;28;20043;-68
2021/12/27 06:59:30;;;;;;;47.03;21.92;;;;;;;;;;5090552;28;20048;-68
2021/12/27 07:01:56;;;;;;;53.55;23.00;;;0.90;99.90;;;;;;5078746;28;20036;-68
2021/12/27 07:04:23;;;;;;;59.80;23.23;;;;;;;;;;5072083;28;20044;-68
2021/12/27 07:06:49;;;;;;;48.05;22.75;;;0.70;99.90;;;;;;5077636;28;20028;-68
2021/12/27 07:09:15;;;;;;;55.53;23.65;;;;;;;;;;5088910;28;20046;-68
2021/12/27 07:11:42;;;;;;;53.47;22.30;;;;;;;;;;5082973;28;20031;-68
2021/12/27 07:14:08;;;;;;;50.95;22.88;;;;;;;;;;5075042;28;20071;-68
2021/12/27 07:16:34;;;;;;;54.53;23.52;;;;;;;;;;5074435;28;20048;-68
2021/12/27 07:19:00;;;;;;;53.97;22.30;;;;;;;;;;5067899;28;20036;-68
2021/12/27 07:21:26;;;;;;;63.78;24.75;;;;;;;;;;5077387;28;20083;-68
2021/12/27 07:23:52;;;;;;;53.95;23.90;;;;;;;;;;5062346;28;20048;-68
2021/12/27 07:26:18;;;;;;;65.82;24.25;;;;;;;;;;5077172;28;20036;-68
2021/12/27 07:28:45;;;;;;;53.95;23.85;;;;;;;;;;5091869;28;20083;-70
2021/12/27 07:31:11;;;;;;;59.60;24.58;;;;;;;;;;5079661;28;20028;-69
2021/12/27 07:33:37;;;;;;;54.67;23.23;;;0.80;99.90;;;;;;5090299;28;20049;-69
2021/12/27 07:36:05;;;;;;;55.42;23.42;;;0.80;99.90;;;;;;5059186;28;20075;-68
2021/12/27 07:38:32;;;;;;;63.55;24.00;;;;;;;;;;5079775;28;20036;-69
2021/12/27 07:40:58;;;;;;;59.58;24.80;;;;;;;;;;5071878;28;20041;-69
2021/12/27 07:43:24;;;;;;;60.25;23.75;;;;;;;;;;5068355;28;20059;-69
2021/12/27 07:45:50;;;;;;;64.50;25.00;;;;;;;;;;5075627;28;20558;-69
2021/12/27 07:48:16;;;;;;;63.95;25.25;;;;;;;;;;5081216;28;20050;-69
2021/12/27 07:50:42;;;;;;;61.67;25.35;;;;;;;;;;5070618;28;20032;-69
2021/12/27 07:53:08;;;;;;;62.95;24.77;;;;;;;;;;5085255;28;20068;-69
2021/12/27 07:55:34;;;;;;;66.07;26.13;;;;;;;;;;5093557;28;20027;-69
2021/12/27 07:58:01;;;;;;;72.38;25.90;;;;;;;;;;5064452;28;20094;-69
2021/12/27 08:00:27;;;;;;;81.93;27.10;;;;;;;;;;5076265;28;20098;-69
2021/12/27 08:02:54;;;;;;;63.10;25.35;;;;;;;;;;5084298;28;20044;-68
2021/12/27 08:05:20;;;;;;;75.22;26.83;;;;;;;;;;5061354;28;20043;-69
2021/12/27 08:07:47;;;;;;;60.28;24.35;;;1.00;99.90;;;;;;5076266;28;20130;-69
2021/12/27 08:10:14;;;;;;;74.05;25.73;;;0.90;99.90;;;;;;5080981;28;20033;-69
2021/12/27 08:12:40;;;;;;;77.30;25.65;;;;;;;;;;5078389;28;20040;-69
2021/12/27 08:15:08;;;;;;;68.15;24.98;;;0.80;99.90;;;;;;5092924;28;20071;-69
2021/12/27 08:17:35;;;;;;;69.50;25.90;;;;;;;;;;5081744;28;20032;-69
2021/12/27 08:20:01;;;;;;;73.32;25.73;;;;;;;;;;5059483;28;20083;-69
2021/12/27 08:22:27;;;;;;;71.63;26.23;;;;;;;;;;5075341;28;20040;-69
2021/12/27 08:24:53;;;;;;;72.47;25.67;;;;;;;;;;5061047;28;20157;-69
2021/12/27 08:27:21;;;;;;;70.90;26.02;;;1.00;99.90;;;;;;5084477;28;20040;-69
2021/12/27 08:29:47;;;;;;;76.65;27.13;;;;;;;;;;5075649;28;20043;-69
2021/12/27 08:32:14;;;;;;;76.90;25.17;;;;;;;;;;5091173;28;20055;-69
2021/12/27 08:34:40;;;;;;;72.32;25.63;;;;;;;;;;5090253;28;20048;-69
2021/12/27 08:37:06;;;;;;;74.60;26.35;;;;;;;;;;5076427;28;20040;-69
2021/12/27 08:39:34;;;;;;;78.40;25.58;;;;;;;;;;5086427;28;21392;-69
2021/12/27 08:42:01;;;;;;;85.13;27.98;;;;;;;;;;5076933;28;20131;-69
2021/12/27 08:44:27;;;;;;;81.68;26.20;;;;;;;;;;5079496;28;20033;-69
2021/12/27 08:46:53;;;;;;;90.47;26.25;;;;;;;;;;5075604;28;20507;-69
2021/12/27 08:49:19;;;;;;;78.20;26.58;;;;;;;;;;5086615;28;20032;-69
2021/12/27 08:51:45;;;;;;;79.50;25.33;;;;;;;;;;5076307;28;20029;-69
2021/12/27 08:54:11;;;;;;;83.07;27.88;;;;;;;;;;5085068;28;20094;-70
2021/12/27 08:56:38;;;;;;;72.00;24.25;;;;;;;;;;5058592;28;20057;-70
2021/12/27 08:59:04;;;;;;;83.05;27.40;;;;;;;;;;5082961;28;20036;-71
2021/12/27 09:01:31;;;;;;;69.72;24.67;;;1.70;99.90;;;;;;5090311;28;20086;-70
2021/12/27 09:03:57;;;;;;;78.18;25.70;;;;;;;;;;5083940;28;20070;-71
2021/12/27 09:06:23;;;;;;;72.35;25.30;;;;;;;;;;5078080;28;20064;-71
2021/12/27 09:08:49;;;;;;;103.50;26.48;;;;;;;;;;5061362;28;20212;-71
2021/12/27 09:11:15;;;;;;;80.80;25.27;;;;;;;;;;5074261;28;20032;-70
2021/12/27 09:13:41;;;;;;;76.78;26.45;;;;;;;;;;5060761;28;20025;-70
2021/12/27 09:16:10;;;;;;;79.75;25.10;;;;;;;;;;5057407;28;20055;-70
2021/12/27 09:18:36;;;;;;;78.50;26.80;;;;;;;;;;5076648;28;20094;-71
2021/12/27 09:21:03;;;;;;;90.30;25.73;;;1.60;99.90;;;;;;5080646;28;20488;-71
2021/12/27 09:23:30;;;;;;;81.35;26.75;;;;;;;;;;5074722;28;20522;-71
2021/12/27 09:25:56;;;;;;;93.03;26.58;;;;;;;;;;5077488;28;20036;-71
2021/12/27 09:28:22;;;;;;;82.30;26.70;;;;;;;;;;5081729;28;20044;-70
2021/12/27 09:30:48;;;;;;;90.57;26.80;;;;;;;;;;5088131;28;20480;-70
2021/12/27 09:33:14;;;;;;;78.88;26.08;;;;;;;;;;5066200;28;20048;-70
2021/12/27 09:35:41;;;;;;;79.82;25.65;;;;;;;;;;5089061;28;20456;-70
2021/12/27 09:38:08;;;;;;;91.15;26.38;;;;;;;;;;5073855;28;20071;-70
2021/12/27 09:40:34;;;;;;;76.20;25.60;;;;;;;;;;5073988;28;20119;-70
2021/12/27 09:43:00;;;;;;;78.90;24.70;;;;;;;;;;5072886;28;20036;-70
2021/12/27 09:45:27;;;;;;;93.32;26.30;;;;;;;;;;5086698;28;20036;-70
2021/12/27 09:47:53;;;;;;;77.65;26.17;;;;;;;;;;5087921;28;20037;-70
2021/12/27 09:50:41;;;;;;;77.32;25.92;;;1.30;99.90;;;;;;5083545;28;20036;-70
2021/12/27 09:53:07;;;;;;;79.18;24.98;;;;;;;;;;5089120;28;20526;-71
2021/12/27 09:55:34;;;;;;;85.80;26.15;;;;;;;;;;5086420;28;20035;-71
2021/12/27 09:58:00;;;;;;;84.88;25.80;;;;;;;;;;5075198;28;20085;-71
2021/12/27 10:00:27;;;;;;;82.28;25.35;;;1.50;99.90;;;;;;5078140;28;20075;-71
2021/12/27 10:02:55;;;;;;;87.50;25.95;;;1.30;99.90;;;;;;5075597;28;20048;-70
2021/12/27 10:05:25;;;;;;;88.47;24.50;;;1.60;99.90;;;;;;5069184;28;20048;-70
2021/12/27 10:07:51;;;;;;;78.40;27.23;;;;;;;;;;5083100;28;20041;-70
2021/12/27 10:10:18;;;;;;;86.80;26.05;;;;;;;;;;5074389;28;20044;-70
2021/12/27 10:12:44;;;;;;;86.75;24.73;;;;;;;;;;5082583;28;20067;-73
2021/12/27 10:15:12;;;;;;;90.93;25.08;;;;;;;;;;5079476;28;20040;-70
2021/12/27 10:17:41;;;;;;;88.43;26.35;;;1.70;99.90;;;;;;5065512;28;20490;-71
2021/12/27 10:20:15;;;;;;;78.82;25.45;;;1.60;99.90;;;;;;5072892;28;20433;-70
2021/12/27 10:22:42;;;;;;;76.63;24.08;;;1.60;99.90;;;;;;5072805;28;20051;-70
2021/12/27 10:25:19;;;;;;;87.68;24.73;;;1.60;99.90;;;;;;5056287;28;20049;-70
2021/12/27 10:27:47;;;;;;;82.43;25.52;;;1.60;99.90;;;;;;5073897;28;20084;-70
2021/12/27 10:30:29;;;;;;;78.28;22.67;;;1.80;99.90;;;;;;5055799;28;20044;-70
2021/12/27 10:33:23;;;;;;;77.60;23.05;;;1.80;99.90;;;;;;5072508;28;20511;-70
2021/12/27 10:35:49;;;;;;;78.53;22.67;;;;;;;;;;5072393;28;20044;-70
2021/12/27 10:38:24;;;;;;;73.13;25.13;;;1.80;99.90;;;;;;5072495;28;20043;-70
2021/12/27 10:40:58;;;;;;;65.53;22.52;;;1.90;99.90;;;;;;5072597;28;20044;-70
2021/12/27 10:43:34;;;;;;;70.97;25.00;;;1.80;99.90;;;;;;5072352;28;20574;-70
2021/12/27 10:46:04;;;;;;;76.85;23.95;;;1.80;99.90;;;;;;5055860;28;20415;-70
2021/12/27 10:48:38;;;;;;;88.45;24.45;;;2.20;99.90;;;;;;5072604;28;20141;-70
2021/12/27 10:51:05;;;;;;;80.18;24.15;;;1.90;99.90;;;;;;5072362;28;20528;-70
2021/12/27 10:53:52;;;;;;;75.25;24.63;;;1.90;99.90;;;;;;5072451;28;20045;-70
2021/12/27 10:56:20;;;;;;;79.45;25.85;;;2.10;99.90;;;;;;5072036;28;20175;-70
2021/12/27 10:58:49;;;;;;;85.00;26.30;;;2.10;99.90;;;;;;5073563;28;20388;-70
2021/12/27 11:01:18;;;;;;;97.60;26.63;;;;;;;;;;5072288;28;20044;-70
2021/12/27 11:03:46;;;;;;;80.30;26.70;;;2.10;99.90;;;;;;5072069;28;20492;-70
2021/12/27 11:06:16;;;;;;;75.53;23.75;;;2.10;99.90;;;;;;5072070;28;20043;-70
2021/12/27 11:08:44;;;;;;;87.32;24.70;;;;;;;;;;5071998;28;20131;-70
2021/12/27 11:11:10;;;;;;;77.03;24.15;;;;;;;;;;5072360;28;20072;-70
2021/12/27 11:13:36;;;;;;;82.85;24.73;;;;;;;;;;5072167;28;20127;-70
2021/12/27 11:16:03;;;;;;;68.53;23.58;;;2.50;99.90;;;;;;5071958;28;20040;-70
2021/12/27 11:18:29;;;;;;;86.68;23.13;;;;;;;;;;5055357;28;20098;-70
2021/12/27 11:21:08;;;;;;;101.15;24.75;;;2.00;99.90;;;;;;5072023;28;20128;-70
2021/12/27 11:23:35;;;;;;;91.25;26.10;;;;;;;;;;5072080;28;20044;-70
2021/12/27 11:26:06;;;;;;;89.25;24.35;;;2.20;99.90;;;;;;5071968;28;20094;-71
2021/12/27 11:28:36;;;;;;;85.05;25.52;;;2.10;99.90;;;;;;5071861;28;20045;-70
2021/12/27 11:31:25;;;;;;;75.60;24.90;;;2.50;99.90;;;;;;5071990;28;20040;-70
2021/12/27 11:33:59;;;;;;;74.43;25.85;;;2.20;99.90;;;;;;5071889;28;20136;-71
2021/12/27 11:36:33;;;;;;;78.20;25.55;;;2.30;99.90;;;;;;5071794;28;20040;-71
2021/12/27 11:39:15;;;;;;;75.20;23.45;;;2.20;99.90;;;;;;5055254;28;20534;-70
2021/12/27 11:41:42;;;;;;;76.38;24.90;;;;;;;;;;5071905;28;20485;-70
2021/12/27 11:44:17;;;;;;;75.53;25.85;;;;;;;;;;5071775;28;20040;-70
2021/12/27 11:46:49;;;;;;;84.82;25.60;;;2.00;99.90;;;;;;5072147;28;20127;-71
2021/12/27 11:49:16;;;;;;;90.90;25.15;;;2.40;99.90;;;;;;5071808;28;20102;-70
2021/12/27 11:51:46;;;;;;;94.72;26.83;;;;;;;;;;5055307;28;20049;-71
2021/12/27 11:54:28;;;;;;;87.90;24.58;;;2.30;99.90;;;;;;5071746;28;20044;-70
2021/12/27 11:56:55;;;;;;;89.95;26.95;;;2.60;99.90;;;;;;5071666;28;20480;-70
2021/12/27 11:59:35;;;;;;;76.80;24.48;;;2.50;99.90;;;;;;5071840;28;20050;-70
2021/12/27 12:02:21;;;;;;;93.28;25.75;;;;;;;;;;5071830;28;20049;-71
2021/12/27 12:04:53;;;;;;;86.70;26.13;;;2.50;99.90;;;;;;5071452;28;20528;-71
2021/12/27 12:07:49;;;;;;;88.57;25.17;;;2.50;99.90;;;;;;5056130;28;20087;-70
2021/12/27 12:10:16;;;;;;;94.03;25.90;;;;;;;;;;5046461;28;20045;-71
2021/12/27 12:12:42;;;;;;;88.28;25.60;;;;;;;;;;5075541;28;20091;-71
2021/12/27 12:15:09;;;;;;;83.10;25.73;;;2.60;99.90;;;;;;5075209;28;20072;-71
2021/12/27 12:17:41;;;;;;;91.72;25.55;;;2.50;99.90;;;;;;5075184;28;20076;-71
2021/12/27 12:20:34;;;;;;;89.15;25.15;;;2.50;99.90;;;;;;5075291;28;20040;-71
2021/12/27 12:23:04;;;;;;;91.88;26.95;;;2.60;99.90;;;;;;5074990;28;20040;-71
2021/12/27 12:25:30;;;;;;;91.07;27.88;;;;;;;;;;5074788;28;20072;-71
2021/12/27 12:27:57;;;;;;;94.25;26.58;;;;;;;;;;5074837;28;20049;-71
2021/12/27 12:30:27;;;;;;;88.78;27.02;;;2.70;99.90;;;;;;5074939;28;20488;-70
2021/12/27 12:33:03;;;;;;;98.35;26.05;;;;;;;;;;5074990;28;20416;-70
2021/12/27 12:35:40;;;;;;;102.40;27.20;;;2.60;99.90;;;;;;5074834;28;20048;-70
2021/12/27 12:38:11;;;;;;;140.30;28.20;;;2.40;99.90;;;;;;5058134;28;20047;-70
2021/12/27 12:40:37;;;;;;;108.07;27.17;;;;;;;;;;5058001;28;20052;-70
2021/12/27 12:43:03;;;;;;;185.30;29.95;;;;;;;;;;5058498;28;20044;-70
2021/12/27 12:45:30;;;;;;;129.18;28.05;;;2.60;99.90;;;;;;5074756;28;20040;-70
2021/12/27 12:47:57;;;;;;;103.78;26.50;;;;;;;;;;5074672;28;20134;-70
2021/12/27 12:50:23;;;;;;;114.45;27.15;;;2.80;99.90;;;;;;5074768;28;20036;-70
2021/12/27 12:52:55;;;;;;;121.10;27.45;;;2.50;99.90;;;;;;5074518;28;20040;-70
2021/12/27 12:55:22;;;;;;;102.10;27.50;;;3.20;99.90;;;;;;5074348;28;20032;-70
2021/12/27 12:57:50;;;;;;;98.88;26.70;;;2.60;99.90;;;;;;5074468;28;20051;-70
2021/12/27 13:00:21;;;;;;;101.75;26.17;;;2.70;99.90;;;;;;5074310;28;20037;-70
2021/12/27 13:02:47;;;;;;;98.15;26.73;;;;;;;;;;5057539;28;20044;-70
2021/12/27 13:05:15;;;;;;;116.53;27.95;;;2.60;99.90;;;;;;5074234;28;20062;-70
2021/12/27 13:07:46;;;;;;;99.22;25.35;;;2.70;99.90;;;;;;5074144;28;20127;-70
2021/12/27 13:10:30;;;;;;;94.80;25.83;;;2.50;99.90;;;;;;5074212;28;20123;-70
2021/12/27 13:13:11;;;;;;;116.63;26.83;;;2.80;99.90;;;;;;5074152;28;20040;-70
2021/12/27 13:15:50;;;;;;;100.93;26.13;;;2.40;99.90;;;;;;5074308;28;20082;-70
2021/12/27 13:18:17;;;;;;;114.45;27.38;;;2.70;99.90;;;;;;5073851;28;20041;-70
2021/12/27 13:20:55;;;;;;;136.23;28.35;;;2.70;99.90;;;;;;5057220;28;20055;-70
2021/12/27 13:23:23;;;;;;;151.27;28.15;;;2.50;99.90;;;;;;5057315;28;20047;-71
2021/12/27 13:25:55;;;;;;;119.13;27.27;;;2.60;99.90;;;;;;5074158;28;20131;-70
2021/12/27 13:28:36;;;;;;;143.10;27.58;;;2.60;99.90;;;;;;5073945;28;20040;-70
2021/12/27 13:31:02;;;;;;;93.30;26.23;;;;;;;;;;5073882;28;20063;-70
2021/12/27 13:33:57;;;;;;;131.38;26.95;;;2.70;99.90;;;;;;5073620;28;20053;-69
2021/12/27 13:36:40;;;;;;;112.53;27.50;;;;;;;;;;5068628;28;20054;-71
2021/12/27 13:39:10;;;;;;;151.43;27.90;;;2.70;99.90;;;;;;5073454;28;20049;-69
2021/12/27 13:41:50;;;;;;;123.93;27.92;;;;;;;;;;5073591;28;20130;-70
2021/12/27 13:44:26;;;;;;;96.57;28.80;;;2.80;99.90;;;;;;5056745;28;20076;-70
2021/12/27 13:47:03;;;;;;;119.10;27.55;;;2.90;99.90;;;;;;5073519;28;20048;-69
2021/12/27 13:49:30;;;;;;;183.27;29.38;;;;;;;;;;5073403;28;20116;-69